sensor_id;sensor_type;location;lat;lon;timestamp;P1;durP1;ratioP1;P2;durP2;ratioP2
13753;SDS011;6948;51.216;6.778;2022-11-20T00:00:51;16.77;;;14.97;;
13753;SDS011;6948;51.216;6.778;2022-11-20T00:03:17;17.10;;;15.30;;
13753;SDS011;6948;51.216;6.778;2022-11-20T00:05:44;17.07;;;15.33;;
13753;SDS011;6948;51.216;6.778;2022-11-20T00:08:10;17.23;;;15.43;;
13753;SDS011;6948;51.216;6.778;2022-11-20T00:10:37;17.33;;;15.47;;
13753;SDS011;6948;51.216;6.778;2022-11-20T00:13:03;17.60;;;15.70;;
13753;SDS011;6948;51.216;6.778;2022-11-20T00:15:29;17.47;;;15.67;;
13753;SDS011;6948;51.216;6.778;2022-11-20T00:17:56;16.50;;;14.80;;
13753;SDS011;6948;51.216;6.778;2022-11-20T00:20:22;18.70;;;15.53;;
13753;SDS011;6948;51.216;6.778;2022-11-20T00:22:48;17.57;;;15.73;;
13753;SDS011;6948;51.216;6.778;2022-11-20T00:25:15;17.57;;;15.77;;
13753;SDS011;6948;51.216;6.778;2022-11-20T00:27:41;17.93;;;16.03;;
13753;SDS011;6948;51.216;6.778;2022-11-20T00:30:07;19.13;;;16.07;;
13753;SDS011;6948;51.216;6.778;2022-11-20T00:32:33;19.97;;;16.20;;
13753;SDS011;6948;51.216;6.778;2022-11-20T00:34:59;19.70;;;16.33;;
13753;SDS011;6948;51.216;6.778;2022-11-20T00:37:25;18.10;;;16.17;;
13753;SDS011;6948;51.216;6.778;2022-11-20T00:39:51;21.57;;;19.27;;
13753;SDS011;6948;51.216;6.778;2022-11-20T00:42:18;20.57;;;17.50;;
13753;SDS011;6948;51.216;6.778;2022-11-20T00:44:44;19.73;;;17.60;;
13753;SDS011;6948;51.216;6.778;2022-11-20T00:47:10;21.27;;;18.90;;
13753;SDS011;6948;51.216;6.778;2022-11-20T00:49:36;21.73;;;18.07;;
13753;SDS011;6948;51.216;6.778;2022-11-20T00:52:02;21.17;;;17.60;;
13753;SDS011;6948;51.216;6.778;2022-11-20T00:54:28;20.70;;;17.53;;
13753;SDS011;6948;51.216;6.778;2022-11-20T00:56:54;19.43;;;17.17;;
13753;SDS011;6948;51.216;6.778;2022-11-20T00:59:20;19.93;;;17.73;;
13753;SDS011;6948;51.216;6.778;2022-11-20T01:01:46;19.80;;;17.47;;
13753;SDS011;6948;51.216;6.778;2022-11-20T01:04:12;20.43;;;17.93;;
13753;SDS011;6948;51.216;6.778;2022-11-20T01:06:39;20.77;;;18.07;;
13753;SDS011;6948;51.216;6.778;2022-11-20T01:09:07;20.97;;;18.43;;
13753;SDS011;6948;51.216;6.778;2022-11-20T01:11:37;23.50;;;18.90;;
13753;SDS011;6948;51.216;6.778;2022-11-20T01:14:04;20.37;;;18.10;;
13753;SDS011;6948;51.216;6.778;2022-11-20T01:16:31;20.00;;;17.90;;
13753;SDS011;6948;51.216;6.778;2022-11-20T01:18:59;20.33;;;18.10;;
13753;SDS011;6948;51.216;6.778;2022-11-20T01:21:27;21.93;;;19.50;;
13753;SDS011;6948;51.216;6.778;2022-11-20T01:23:53;21.07;;;18.83;;
13753;SDS011;6948;51.216;6.778;2022-11-20T01:26:21;19.93;;;17.80;;
13753;SDS011;6948;51.216;6.778;2022-11-20T01:28:47;22.60;;;19.10;;
13753;SDS011;6948;51.216;6.778;2022-11-20T01:31:15;21.13;;;18.00;;
13753;SDS011;6948;51.216;6.778;2022-11-20T01:33:42;19.93;;;17.70;;
13753;SDS011;6948;51.216;6.778;2022-11-20T01:36:09;19.73;;;17.43;;
13753;SDS011;6948;51.216;6.778;2022-11-20T01:38:35;21.57;;;17.93;;
13753;SDS011;6948;51.216;6.778;2022-11-20T01:41:01;21.47;;;19.07;;
13753;SDS011;6948;51.216;6.778;2022-11-20T01:43:27;20.20;;;17.30;;
13753;SDS011;6948;51.216;6.778;2022-11-20T01:48:37;20.87;;;18.23;;
13753;SDS011;6948;51.216;6.778;2022-11-20T01:51:05;20.63;;;18.10;;
13753;SDS011;6948;51.216;6.778;2022-11-20T01:53:33;22.77;;;18.47;;
13753;SDS011;6948;51.216;6.778;2022-11-20T01:56:02;20.63;;;17.97;;
13753;SDS011;6948;51.216;6.778;2022-11-20T01:58:31;21.10;;;18.50;;
13753;SDS011;6948;51.216;6.778;2022-11-20T02:00:59;23.67;;;19.00;;
13753;SDS011;6948;51.216;6.778;2022-11-20T02:03:25;22.77;;;18.47;;
13753;SDS011;6948;51.216;6.778;2022-11-20T02:05:55;20.83;;;18.27;;
13753;SDS011;6948;51.216;6.778;2022-11-20T02:08:23;21.97;;;18.57;;
13753;SDS011;6948;51.216;6.778;2022-11-20T02:10:49;22.57;;;18.80;;
13753;SDS011;6948;51.216;6.778;2022-11-20T02:13:15;22.77;;;18.77;;
13753;SDS011;6948;51.216;6.778;2022-11-20T02:16:02;22.07;;;18.50;;
13753;SDS011;6948;51.216;6.778;2022-11-20T02:18:28;24.97;;;19.07;;
13753;SDS011;6948;51.216;6.778;2022-11-20T02:20:56;22.30;;;18.37;;
13753;SDS011;6948;51.216;6.778;2022-11-20T02:26:02;22.00;;;19.43;;
13753;SDS011;6948;51.216;6.778;2022-11-20T02:28:29;23.97;;;20.30;;
13753;SDS011;6948;51.216;6.778;2022-11-20T02:30:55;23.40;;;19.97;;
13753;SDS011;6948;51.216;6.778;2022-11-20T02:33:21;25.23;;;20.40;;
13753;SDS011;6948;51.216;6.778;2022-11-20T02:35:47;24.30;;;21.00;;
13753;SDS011;6948;51.216;6.778;2022-11-20T02:38:13;23.40;;;20.07;;
13753;SDS011;6948;51.216;6.778;2022-11-20T02:40:40;24.57;;;21.17;;
13753;SDS011;6948;51.216;6.778;2022-11-20T02:43:06;23.90;;;20.77;;
13753;SDS011;6948;51.216;6.778;2022-11-20T02:45:32;23.37;;;20.30;;
13753;SDS011;6948;51.216;6.778;2022-11-20T02:47:58;23.00;;;20.60;;
13753;SDS011;6948;51.216;6.778;2022-11-20T02:50:25;24.13;;;20.63;;
13753;SDS011;6948;51.216;6.778;2022-11-20T02:52:51;24.83;;;21.00;;
13753;SDS011;6948;51.216;6.778;2022-11-20T02:55:17;24.40;;;20.47;;
13753;SDS011;6948;51.216;6.778;2022-11-20T02:57:43;26.37;;;20.20;;
13753;SDS011;6948;51.216;6.778;2022-11-20T03:00:09;23.53;;;20.67;;
13753;SDS011;6948;51.216;6.778;2022-11-20T03:02:35;22.83;;;19.73;;
13753;SDS011;6948;51.216;6.778;2022-11-20T03:05:01;20.70;;;18.47;;
13753;SDS011;6948;51.216;6.778;2022-11-20T03:07:27;23.77;;;18.67;;
13753;SDS011;6948;51.216;6.778;2022-11-20T03:09:53;22.20;;;18.73;;
13753;SDS011;6948;51.216;6.778;2022-11-20T03:12:19;22.60;;;19.57;;
13753;SDS011;6948;51.216;6.778;2022-11-20T03:14:45;22.60;;;19.23;;
13753;SDS011;6948;51.216;6.778;2022-11-20T03:17:11;20.50;;;18.30;;
13753;SDS011;6948;51.216;6.778;2022-11-20T03:19:37;21.60;;;17.93;;
13753;SDS011;6948;51.216;6.778;2022-11-20T03:22:03;21.53;;;17.90;;
13753;SDS011;6948;51.216;6.778;2022-11-20T03:24:29;20.23;;;17.93;;
13753;SDS011;6948;51.216;6.778;2022-11-20T03:26:55;21.70;;;17.73;;
13753;SDS011;6948;51.216;6.778;2022-11-20T03:29:21;20.53;;;18.23;;
13753;SDS011;6948;51.216;6.778;2022-11-20T03:31:47;22.43;;;17.90;;
13753;SDS011;6948;51.216;6.778;2022-11-20T03:40:12;21.10;;;17.87;;
13753;SDS011;6948;51.216;6.778;2022-11-20T03:42:40;20.77;;;18.47;;
13753;SDS011;6948;51.216;6.778;2022-11-20T03:45:15;20.37;;;18.17;;
13753;SDS011;6948;51.216;6.778;2022-11-20T03:47:42;20.47;;;17.80;;
13753;SDS011;6948;51.216;6.778;2022-11-20T03:50:08;22.00;;;18.07;;
13753;SDS011;6948;51.216;6.778;2022-11-20T03:52:34;21.20;;;18.50;;
13753;SDS011;6948;51.216;6.778;2022-11-20T03:55:00;19.00;;;16.93;;
13753;SDS011;6948;51.216;6.778;2022-11-20T03:57:26;20.43;;;17.80;;
13753;SDS011;6948;51.216;6.778;2022-11-20T03:59:52;21.43;;;18.77;;
13753;SDS011;6948;51.216;6.778;2022-11-20T04:02:18;20.50;;;18.10;;
13753;SDS011;6948;51.216;6.778;2022-11-20T04:04:44;19.73;;;17.63;;
13753;SDS011;6948;51.216;6.778;2022-11-20T04:07:10;20.97;;;18.67;;
13753;SDS011;6948;51.216;6.778;2022-11-20T04:09:36;21.10;;;17.77;;
13753;SDS011;6948;51.216;6.778;2022-11-20T04:12:02;20.07;;;17.80;;
13753;SDS011;6948;51.216;6.778;2022-11-20T04:14:28;18.73;;;16.73;;
13753;SDS011;6948;51.216;6.778;2022-11-20T04:16:54;19.93;;;17.83;;
13753;SDS011;6948;51.216;6.778;2022-11-20T04:19:20;20.47;;;17.80;;
13753;SDS011;6948;51.216;6.778;2022-11-20T04:21:46;20.37;;;17.57;;
13753;SDS011;6948;51.216;6.778;2022-11-20T04:24:12;21.87;;;17.70;;
13753;SDS011;6948;51.216;6.778;2022-11-20T04:26:39;20.33;;;17.30;;
13753;SDS011;6948;51.216;6.778;2022-11-20T04:29:05;23.17;;;17.47;;
13753;SDS011;6948;51.216;6.778;2022-11-20T04:31:32;20.87;;;18.20;;
13753;SDS011;6948;51.216;6.778;2022-11-20T04:33:59;21.10;;;18.30;;
13753;SDS011;6948;51.216;6.778;2022-11-20T04:36:26;20.33;;;16.90;;
13753;SDS011;6948;51.216;6.778;2022-11-20T04:38:54;21.60;;;17.30;;
13753;SDS011;6948;51.216;6.778;2022-11-20T04:41:21;19.10;;;16.60;;
13753;SDS011;6948;51.216;6.778;2022-11-20T04:43:48;20.20;;;18.10;;
13753;SDS011;6948;51.216;6.778;2022-11-20T04:46:15;21.17;;;17.53;;
13753;SDS011;6948;51.216;6.778;2022-11-20T04:48:41;22.83;;;17.70;;
13753;SDS011;6948;51.216;6.778;2022-11-20T04:51:07;20.37;;;17.40;;
13753;SDS011;6948;51.216;6.778;2022-11-20T04:53:33;21.37;;;18.00;;
13753;SDS011;6948;51.216;6.778;2022-11-20T04:56:00;22.37;;;18.20;;
13753;SDS011;6948;51.216;6.778;2022-11-20T04:58:26;20.20;;;17.97;;
13753;SDS011;6948;51.216;6.778;2022-11-20T05:00:52;20.50;;;17.70;;
13753;SDS011;6948;51.216;6.778;2022-11-20T05:03:18;19.40;;;17.40;;
13753;SDS011;6948;51.216;6.778;2022-11-20T05:05:44;21.33;;;18.60;;
13753;SDS011;6948;51.216;6.778;2022-11-20T05:08:10;20.00;;;17.77;;
13753;SDS011;6948;51.216;6.778;2022-11-20T05:10:36;21.60;;;18.33;;
13753;SDS011;6948;51.216;6.778;2022-11-20T05:13:02;19.70;;;17.60;;
13753;SDS011;6948;51.216;6.778;2022-11-20T05:15:28;20.03;;;17.83;;
13753;SDS011;6948;51.216;6.778;2022-11-20T05:17:54;20.20;;;18.13;;
13753;SDS011;6948;51.216;6.778;2022-11-20T05:20:20;21.37;;;17.77;;
13753;SDS011;6948;51.216;6.778;2022-11-20T05:22:46;20.63;;;17.87;;
13753;SDS011;6948;51.216;6.778;2022-11-20T05:25:12;20.00;;;17.77;;
13753;SDS011;6948;51.216;6.778;2022-11-20T05:27:38;21.40;;;18.33;;
13753;SDS011;6948;51.216;6.778;2022-11-20T05:30:05;22.00;;;18.17;;
13753;SDS011;6948;51.216;6.778;2022-11-20T05:32:31;20.73;;;18.00;;
13753;SDS011;6948;51.216;6.778;2022-11-20T05:34:57;20.40;;;16.93;;
13753;SDS011;6948;51.216;6.778;2022-11-20T05:37:23;21.77;;;18.23;;
13753;SDS011;6948;51.216;6.778;2022-11-20T05:39:49;21.30;;;18.30;;
13753;SDS011;6948;51.216;6.778;2022-11-20T05:42:15;20.00;;;17.80;;
13753;SDS011;6948;51.216;6.778;2022-11-20T05:44:57;20.73;;;18.17;;
13753;SDS011;6948;51.216;6.778;2022-11-20T05:47:23;19.77;;;17.67;;
13753;SDS011;6948;51.216;6.778;2022-11-20T05:49:49;20.17;;;17.53;;
13753;SDS011;6948;51.216;6.778;2022-11-20T05:52:15;20.87;;;18.23;;
13753;SDS011;6948;51.216;6.778;2022-11-20T05:54:41;20.20;;;17.67;;
13753;SDS011;6948;51.216;6.778;2022-11-20T05:57:07;20.37;;;18.17;;
13753;SDS011;6948;51.216;6.778;2022-11-20T05:59:34;21.80;;;18.17;;
13753;SDS011;6948;51.216;6.778;2022-11-20T06:02:00;19.73;;;17.70;;
13753;SDS011;6948;51.216;6.778;2022-11-20T06:04:26;20.70;;;18.37;;
13753;SDS011;6948;51.216;6.778;2022-11-20T06:06:52;20.33;;;18.20;;
13753;SDS011;6948;51.216;6.778;2022-11-20T06:09:18;20.27;;;18.10;;
13753;SDS011;6948;51.216;6.778;2022-11-20T06:11:44;22.17;;;18.60;;
13753;SDS011;6948;51.216;6.778;2022-11-20T06:14:10;22.10;;;18.63;;
13753;SDS011;6948;51.216;6.778;2022-11-20T06:16:36;21.17;;;18.67;;
13753;SDS011;6948;51.216;6.778;2022-11-20T06:19:02;20.33;;;18.13;;
13753;SDS011;6948;51.216;6.778;2022-11-20T06:21:28;20.73;;;18.20;;
13753;SDS011;6948;51.216;6.778;2022-11-20T06:23:54;20.00;;;17.90;;
13753;SDS011;6948;51.216;6.778;2022-11-20T06:26:22;20.33;;;17.97;;
13753;SDS011;6948;51.216;6.778;2022-11-20T06:28:48;21.13;;;18.30;;
13753;SDS011;6948;51.216;6.778;2022-11-20T06:31:16;21.63;;;17.93;;
13753;SDS011;6948;51.216;6.778;2022-11-20T06:33:42;22.40;;;17.70;;
13753;SDS011;6948;51.216;6.778;2022-11-20T06:36:09;21.80;;;18.10;;
13753;SDS011;6948;51.216;6.778;2022-11-20T06:38:36;19.93;;;17.53;;
13753;SDS011;6948;51.216;6.778;2022-11-20T06:41:03;20.63;;;17.70;;
13753;SDS011;6948;51.216;6.778;2022-11-20T06:43:29;19.17;;;16.97;;
13753;SDS011;6948;51.216;6.778;2022-11-20T06:45:55;21.17;;;15.90;;
13753;SDS011;6948;51.216;6.778;2022-11-20T06:48:22;18.87;;;16.53;;
13753;SDS011;6948;51.216;6.778;2022-11-20T06:50:48;16.63;;;14.20;;
13753;SDS011;6948;51.216;6.778;2022-11-20T06:53:14;16.27;;;14.03;;
13753;SDS011;6948;51.216;6.778;2022-11-20T06:55:42;17.97;;;14.90;;
13753;SDS011;6948;51.216;6.778;2022-11-20T06:58:09;18.27;;;15.03;;
13753;SDS011;6948;51.216;6.778;2022-11-20T07:00:35;16.13;;;14.37;;
13753;SDS011;6948;51.216;6.778;2022-11-20T07:03:04;17.67;;;14.40;;
13753;SDS011;6948;51.216;6.778;2022-11-20T07:05:30;16.30;;;14.60;;
13753;SDS011;6948;51.216;6.778;2022-11-20T07:07:57;17.43;;;15.20;;
13753;SDS011;6948;51.216;6.778;2022-11-20T07:10:23;20.87;;;14.87;;
13753;SDS011;6948;51.216;6.778;2022-11-20T07:12:49;18.17;;;15.63;;
13753;SDS011;6948;51.216;6.778;2022-11-20T07:15:15;17.17;;;14.70;;
13753;SDS011;6948;51.216;6.778;2022-11-20T07:17:42;17.40;;;15.50;;
13753;SDS011;6948;51.216;6.778;2022-11-20T07:20:08;18.37;;;15.10;;
13753;SDS011;6948;51.216;6.778;2022-11-20T07:22:34;17.20;;;14.80;;
13753;SDS011;6948;51.216;6.778;2022-11-20T07:25:00;18.07;;;14.73;;
13753;SDS011;6948;51.216;6.778;2022-11-20T07:27:26;16.07;;;14.37;;
13753;SDS011;6948;51.216;6.778;2022-11-20T07:29:52;17.20;;;15.40;;
13753;SDS011;6948;51.216;6.778;2022-11-20T07:32:19;17.53;;;15.73;;
13753;SDS011;6948;51.216;6.778;2022-11-20T07:34:45;18.17;;;14.90;;
13753;SDS011;6948;51.216;6.778;2022-11-20T07:37:11;16.23;;;14.40;;
13753;SDS011;6948;51.216;6.778;2022-11-20T07:39:37;17.23;;;14.83;;
13753;SDS011;6948;51.216;6.778;2022-11-20T07:42:03;17.27;;;15.23;;
13753;SDS011;6948;51.216;6.778;2022-11-20T07:44:29;18.27;;;16.13;;
13753;SDS011;6948;51.216;6.778;2022-11-20T07:46:55;21.10;;;17.10;;
13753;SDS011;6948;51.216;6.778;2022-11-20T07:49:21;19.27;;;16.93;;
13753;SDS011;6948;51.216;6.778;2022-11-20T07:51:49;20.07;;;16.90;;
13753;SDS011;6948;51.216;6.778;2022-11-20T07:54:16;19.53;;;17.07;;
13753;SDS011;6948;51.216;6.778;2022-11-20T07:56:42;17.80;;;15.83;;
13753;SDS011;6948;51.216;6.778;2022-11-20T07:59:08;17.33;;;14.73;;
13753;SDS011;6948;51.216;6.778;2022-11-20T08:01:34;17.30;;;15.50;;
13753;SDS011;6948;51.216;6.778;2022-11-20T08:04:00;16.10;;;14.27;;
13753;SDS011;6948;51.216;6.778;2022-11-20T08:06:26;18.53;;;15.03;;
13753;SDS011;6948;51.216;6.778;2022-11-20T08:08:52;17.87;;;14.63;;
13753;SDS011;6948;51.216;6.778;2022-11-20T08:11:18;19.90;;;16.80;;
13753;SDS011;6948;51.216;6.778;2022-11-20T08:14:04;20.80;;;17.87;;
13753;SDS011;6948;51.216;6.778;2022-11-20T08:16:38;19.60;;;17.20;;
13753;SDS011;6948;51.216;6.778;2022-11-20T08:19:04;22.77;;;18.97;;
13753;SDS011;6948;51.216;6.778;2022-11-20T08:21:30;19.63;;;17.63;;
13753;SDS011;6948;51.216;6.778;2022-11-20T08:23:57;21.40;;;18.67;;
13753;SDS011;6948;51.216;6.778;2022-11-20T08:26:23;20.93;;;18.57;;
13753;SDS011;6948;51.216;6.778;2022-11-20T08:28:52;20.20;;;17.73;;
13753;SDS011;6948;51.216;6.778;2022-11-20T08:31:19;21.13;;;18.77;;
13753;SDS011;6948;51.216;6.778;2022-11-20T08:33:45;21.80;;;18.47;;
13753;SDS011;6948;51.216;6.778;2022-11-20T08:36:11;23.80;;;17.80;;
13753;SDS011;6948;51.216;6.778;2022-11-20T08:38:37;20.03;;;17.83;;
13753;SDS011;6948;51.216;6.778;2022-11-20T08:41:04;20.00;;;17.43;;
13753;SDS011;6948;51.216;6.778;2022-11-20T08:43:50;19.43;;;16.77;;
13753;SDS011;6948;51.216;6.778;2022-11-20T08:46:16;20.90;;;18.57;;
13753;SDS011;6948;51.216;6.778;2022-11-20T08:48:42;21.57;;;18.97;;
13753;SDS011;6948;51.216;6.778;2022-11-20T08:51:09;24.67;;;19.17;;
13753;SDS011;6948;51.216;6.778;2022-11-20T08:53:35;21.47;;;18.83;;
13753;SDS011;6948;51.216;6.778;2022-11-20T08:56:01;20.83;;;18.63;;
13753;SDS011;6948;51.216;6.778;2022-11-20T08:58:27;22.73;;;19.53;;
13753;SDS011;6948;51.216;6.778;2022-11-20T09:00:53;23.20;;;20.20;;
13753;SDS011;6948;51.216;6.778;2022-11-20T09:03:19;21.43;;;18.43;;
13753;SDS011;6948;51.216;6.778;2022-11-20T09:05:45;21.73;;;19.00;;
13753;SDS011;6948;51.216;6.778;2022-11-20T09:08:11;20.27;;;17.97;;
13753;SDS011;6948;51.216;6.778;2022-11-20T09:10:37;19.87;;;17.77;;
13753;SDS011;6948;51.216;6.778;2022-11-20T09:13:04;23.63;;;18.60;;
13753;SDS011;6948;51.216;6.778;2022-11-20T09:15:31;21.13;;;18.60;;
13753;SDS011;6948;51.216;6.778;2022-11-20T09:17:58;22.03;;;19.10;;
13753;SDS011;6948;51.216;6.778;2022-11-20T09:20:25;25.23;;;19.97;;
13753;SDS011;6948;51.216;6.778;2022-11-20T09:22:51;22.73;;;19.87;;
13753;SDS011;6948;51.216;6.778;2022-11-20T09:25:17;22.30;;;19.90;;
13753;SDS011;6948;51.216;6.778;2022-11-20T09:27:46;24.83;;;22.20;;
13753;SDS011;6948;51.216;6.778;2022-11-20T09:30:12;22.17;;;18.97;;
13753;SDS011;6948;51.216;6.778;2022-11-20T09:32:39;22.93;;;19.17;;
13753;SDS011;6948;51.216;6.778;2022-11-20T09:35:05;21.60;;;19.10;;
13753;SDS011;6948;51.216;6.778;2022-11-20T09:37:32;20.57;;;18.17;;
13753;SDS011;6948;51.216;6.778;2022-11-20T09:39:58;21.33;;;19.10;;
13753;SDS011;6948;51.216;6.778;2022-11-20T09:50:31;20.53;;;18.37;;
13753;SDS011;6948;51.216;6.778;2022-11-20T09:53:04;24.47;;;20.83;;
13753;SDS011;6948;51.216;6.778;2022-11-20T09:55:35;26.47;;;22.17;;
13753;SDS011;6948;51.216;6.778;2022-11-20T09:58:01;22.37;;;19.60;;
13753;SDS011;6948;51.216;6.778;2022-11-20T10:00:30;20.10;;;17.20;;
13753;SDS011;6948;51.216;6.778;2022-11-20T10:03:01;21.53;;;19.23;;
13753;SDS011;6948;51.216;6.778;2022-11-20T10:05:29;20.07;;;17.97;;
13753;SDS011;6948;51.216;6.778;2022-11-20T10:10:43;19.37;;;17.00;;
13753;SDS011;6948;51.216;6.778;2022-11-20T10:13:17;23.10;;;20.60;;
13753;SDS011;6948;51.216;6.778;2022-11-20T10:15:53;19.70;;;17.10;;
13753;SDS011;6948;51.216;6.778;2022-11-20T10:18:23;21.23;;;18.17;;
13753;SDS011;6948;51.216;6.778;2022-11-20T10:23:51;18.97;;;16.30;;
13753;SDS011;6948;51.216;6.778;2022-11-20T10:26:26;19.20;;;17.17;;
13753;SDS011;6948;51.216;6.778;2022-11-20T10:29:01;21.70;;;18.33;;
13753;SDS011;6948;51.216;6.778;2022-11-20T10:31:33;19.33;;;17.23;;
13753;SDS011;6948;51.216;6.778;2022-11-20T10:34:01;21.60;;;18.30;;
13753;SDS011;6948;51.216;6.778;2022-11-20T10:36:30;20.30;;;17.70;;
13753;SDS011;6948;51.216;6.778;2022-11-20T10:39:03;20.23;;;18.03;;
13753;SDS011;6948;51.216;6.778;2022-11-20T10:41:32;21.50;;;17.73;;
13753;SDS011;6948;51.216;6.778;2022-11-20T10:44:15;20.73;;;18.20;;
13753;SDS011;6948;51.216;6.778;2022-11-20T10:47:01;21.23;;;18.70;;
13753;SDS011;6948;51.216;6.778;2022-11-20T10:49:27;21.43;;;17.90;;
13753;SDS011;6948;51.216;6.778;2022-11-20T10:54:43;20.77;;;17.90;;
13753;SDS011;6948;51.216;6.778;2022-11-20T10:57:16;22.60;;;18.60;;
13753;SDS011;6948;51.216;6.778;2022-11-20T11:02:24;20.87;;;18.10;;
13753;SDS011;6948;51.216;6.778;2022-11-20T11:04:51;24.73;;;19.53;;
13753;SDS011;6948;51.216;6.778;2022-11-20T11:10:11;22.80;;;19.03;;
13753;SDS011;6948;51.216;6.778;2022-11-20T11:12:42;23.03;;;19.60;;
13753;SDS011;6948;51.216;6.778;2022-11-20T11:15:11;22.50;;;18.93;;
13753;SDS011;6948;51.216;6.778;2022-11-20T11:17:45;23.00;;;19.80;;
13753;SDS011;6948;51.216;6.778;2022-11-20T11:22:52;21.93;;;18.70;;
13753;SDS011;6948;51.216;6.778;2022-11-20T11:28:03;22.60;;;17.97;;
13753;SDS011;6948;51.216;6.778;2022-11-20T11:30:29;21.40;;;18.83;;
13753;SDS011;6948;51.216;6.778;2022-11-20T11:33:05;22.63;;;19.03;;
13753;SDS011;6948;51.216;6.778;2022-11-20T11:35:32;22.20;;;17.97;;
13753;SDS011;6948;51.216;6.778;2022-11-20T11:38:06;20.87;;;18.37;;
13753;SDS011;6948;51.216;6.778;2022-11-20T11:40:33;22.60;;;18.57;;
13753;SDS011;6948;51.216;6.778;2022-11-20T11:43:01;21.90;;;18.43;;
13753;SDS011;6948;51.216;6.778;2022-11-20T11:45:28;22.10;;;18.73;;
13753;SDS011;6948;51.216;6.778;2022-11-20T11:47:55;21.57;;;18.70;;
13753;SDS011;6948;51.216;6.778;2022-11-20T11:50:23;22.87;;;19.00;;
13753;SDS011;6948;51.216;6.778;2022-11-20T11:52:54;23.80;;;18.90;;
13753;SDS011;6948;51.216;6.778;2022-11-20T12:03:33;22.70;;;19.17;;
13753;SDS011;6948;51.216;6.778;2022-11-20T12:06:01;22.47;;;19.57;;
13753;SDS011;6948;51.216;6.778;2022-11-20T12:08:32;24.37;;;19.20;;
13753;SDS011;6948;51.216;6.778;2022-11-20T12:11:04;23.87;;;19.03;;
13753;SDS011;6948;51.216;6.778;2022-11-20T12:16:11;22.47;;;18.80;;
13753;SDS011;6948;51.216;6.778;2022-11-20T12:18:38;24.17;;;19.10;;
13753;SDS011;6948;51.216;6.778;2022-11-20T12:21:12;24.43;;;19.47;;
13753;SDS011;6948;51.216;6.778;2022-11-20T12:26:22;20.50;;;18.30;;
13753;SDS011;6948;51.216;6.778;2022-11-20T12:31:46;24.77;;;20.20;;
13753;SDS011;6948;51.216;6.778;2022-11-20T12:36:57;24.27;;;20.30;;
13753;SDS011;6948;51.216;6.778;2022-11-20T12:39:33;23.33;;;19.97;;
13753;SDS011;6948;51.216;6.778;2022-11-20T12:42:07;22.90;;;19.90;;
13753;SDS011;6948;51.216;6.778;2022-11-20T12:45:14;23.23;;;19.53;;
13753;SDS011;6948;51.216;6.778;2022-11-20T12:47:48;24.87;;;20.13;;
13753;SDS011;6948;51.216;6.778;2022-11-20T12:50:19;25.13;;;20.47;;
13753;SDS011;6948;51.216;6.778;2022-11-20T12:52:51;26.20;;;20.60;;
13753;SDS011;6948;51.216;6.778;2022-11-20T12:55:30;26.47;;;21.17;;
13753;SDS011;6948;51.216;6.778;2022-11-20T12:58:00;26.63;;;20.97;;
13753;SDS011;6948;51.216;6.778;2022-11-20T13:00:28;24.73;;;21.53;;
13753;SDS011;6948;51.216;6.778;2022-11-20T13:05:55;25.53;;;22.47;;
13753;SDS011;6948;51.216;6.778;2022-11-20T13:08:24;29.13;;;23.33;;
13753;SDS011;6948;51.216;6.778;2022-11-20T13:10:55;28.80;;;23.33;;
13753;SDS011;6948;51.216;6.778;2022-11-20T13:13:24;29.30;;;23.50;;
13753;SDS011;6948;51.216;6.778;2022-11-20T13:15:55;27.97;;;21.93;;
13753;SDS011;6948;51.216;6.778;2022-11-20T13:18:23;30.57;;;24.73;;
13753;SDS011;6948;51.216;6.778;2022-11-20T13:20:49;28.83;;;24.37;;
13753;SDS011;6948;51.216;6.778;2022-11-20T13:23:22;28.47;;;24.77;;
13753;SDS011;6948;51.216;6.778;2022-11-20T13:25:49;30.13;;;23.10;;
13753;SDS011;6948;51.216;6.778;2022-11-20T13:30:57;29.57;;;24.43;;
13753;SDS011;6948;51.216;6.778;2022-11-20T13:33:28;29.63;;;23.37;;
13753;SDS011;6948;51.216;6.778;2022-11-20T13:35:57;28.87;;;23.93;;
13753;SDS011;6948;51.216;6.778;2022-11-20T13:38:23;31.33;;;24.20;;
13753;SDS011;6948;51.216;6.778;2022-11-20T13:40:54;29.73;;;23.90;;
13753;SDS011;6948;51.216;6.778;2022-11-20T13:43:22;28.23;;;23.60;;
13753;SDS011;6948;51.216;6.778;2022-11-20T13:48:40;32.93;;;25.23;;
13753;SDS011;6948;51.216;6.778;2022-11-20T13:51:09;31.67;;;25.13;;
13753;SDS011;6948;51.216;6.778;2022-11-20T13:53:42;33.20;;;25.97;;
13753;SDS011;6948;51.216;6.778;2022-11-20T13:59:08;31.13;;;23.77;;
13753;SDS011;6948;51.216;6.778;2022-11-20T14:01:38;30.10;;;24.67;;
13753;SDS011;6948;51.216;6.778;2022-11-20T14:04:06;31.93;;;24.73;;
13753;SDS011;6948;51.216;6.778;2022-11-20T14:06:39;31.93;;;25.43;;
13753;SDS011;6948;51.216;6.778;2022-11-20T14:09:09;31.73;;;24.33;;
13753;SDS011;6948;51.216;6.778;2022-11-20T14:11:36;33.60;;;25.13;;
13753;SDS011;6948;51.216;6.778;2022-11-20T14:14:03;30.00;;;24.03;;
13753;SDS011;6948;51.216;6.778;2022-11-20T14:16:31;29.70;;;24.37;;
13753;SDS011;6948;51.216;6.778;2022-11-20T14:18:57;32.07;;;24.20;;
13753;SDS011;6948;51.216;6.778;2022-11-20T14:21:40;33.13;;;24.93;;
13753;SDS011;6948;51.216;6.778;2022-11-20T14:24:07;34.40;;;23.73;;
13753;SDS011;6948;51.216;6.778;2022-11-20T14:26:36;33.87;;;24.40;;
13753;SDS011;6948;51.216;6.778;2022-11-20T14:29:03;31.67;;;23.33;;
13753;SDS011;6948;51.216;6.778;2022-11-20T14:31:30;28.77;;;22.93;;
13753;SDS011;6948;51.216;6.778;2022-11-20T14:33:57;31.33;;;24.43;;
13753;SDS011;6948;51.216;6.778;2022-11-20T14:36:24;30.93;;;24.93;;
13753;SDS011;6948;51.216;6.778;2022-11-20T14:38:51;34.43;;;26.60;;
13753;SDS011;6948;51.216;6.778;2022-11-20T14:41:19;35.57;;;26.70;;
13753;SDS011;6948;51.216;6.778;2022-11-20T14:43:46;31.07;;;24.73;;
13753;SDS011;6948;51.216;6.778;2022-11-20T14:46:13;28.40;;;22.80;;
13753;SDS011;6948;51.216;6.778;2022-11-20T14:48:41;28.90;;;23.30;;
13753;SDS011;6948;51.216;6.778;2022-11-20T14:51:10;26.87;;;21.27;;
13753;SDS011;6948;51.216;6.778;2022-11-20T14:53:36;26.57;;;21.50;;
13753;SDS011;6948;51.216;6.778;2022-11-20T14:56:02;28.90;;;21.53;;
13753;SDS011;6948;51.216;6.778;2022-11-20T14:58:29;25.43;;;21.50;;
13753;SDS011;6948;51.216;6.778;2022-11-20T15:00:59;24.57;;;20.80;;
13753;SDS011;6948;51.216;6.778;2022-11-20T15:03:33;25.93;;;20.77;;
13753;SDS011;6948;51.216;6.778;2022-11-20T15:06:00;25.80;;;20.97;;
13753;SDS011;6948;51.216;6.778;2022-11-20T15:08:26;23.90;;;19.97;;
13753;SDS011;6948;51.216;6.778;2022-11-20T15:10:52;24.77;;;20.53;;
13753;SDS011;6948;51.216;6.778;2022-11-20T15:13:22;24.97;;;20.30;;
13753;SDS011;6948;51.216;6.778;2022-11-20T15:15:51;24.87;;;19.90;;
13753;SDS011;6948;51.216;6.778;2022-11-20T15:18:19;24.77;;;19.13;;
13753;SDS011;6948;51.216;6.778;2022-11-20T15:20:49;22.93;;;19.07;;
13753;SDS011;6948;51.216;6.778;2022-11-20T15:23:16;22.50;;;19.63;;
13753;SDS011;6948;51.216;6.778;2022-11-20T15:25:43;23.87;;;19.27;;
13753;SDS011;6948;51.216;6.778;2022-11-20T15:28:16;25.23;;;20.20;;
13753;SDS011;6948;51.216;6.778;2022-11-20T15:30:43;26.27;;;19.70;;
13753;SDS011;6948;51.216;6.778;2022-11-20T15:33:09;22.93;;;19.43;;
13753;SDS011;6948;51.216;6.778;2022-11-20T15:35:35;25.07;;;20.10;;
13753;SDS011;6948;51.216;6.778;2022-11-20T15:38:01;25.77;;;20.70;;
13753;SDS011;6948;51.216;6.778;2022-11-20T15:40:27;25.03;;;20.33;;
13753;SDS011;6948;51.216;6.778;2022-11-20T15:42:53;25.37;;;20.33;;
13753;SDS011;6948;51.216;6.778;2022-11-20T15:45:37;23.70;;;19.57;;